Time;durP1;ratioP1;P1;durP2;ratioP2;P2;SDS_P1;SDS_P2;PMS_P1;PMS_P2;Temp;Humidity;BMP_temperature;BMP_pressure;BME280_temperature;BME280_humidity;BME280_pressure;Samples;Min_cycle;Max_cycle;Signal;HPM_P1;HPM_P2
2023/06/04 00:00:05;;;;;;;2.88;2.65;;;;;;;16.58;100.00;64709.34;5050950;28;20240;-59
2023/06/04 00:02:31;;;;;;;3.17;2.85;;;;;;;16.56;100.00;64707.16;5050956;28;20266;-55
2023/06/04 00:04:56;;;;;;;4.53;2.70;;;;;;;16.37;100.00;64685.69;5050874;28;20205;-55
2023/06/04 00:07:22;;;;;;;3.70;2.95;;;;;;;16.37;100.00;64688.78;5050766;28;20586;-55
2023/06/04 00:09:47;;;;;;;3.47;2.95;;;;;;;16.29;100.00;64677.41;5050895;28;20221;-57
2023/06/04 00:12:13;;;;;;;3.13;2.83;;;;;;;16.46;100.00;64698.13;5050791;28;20197;-55
2023/06/04 00:14:38;;;;;;;4.22;3.03;;;;;;;16.44;100.00;64695.94;5051347;28;20679;-55
2023/06/04 00:17:04;;;;;;;5.60;3.10;;;;;;;16.57;100.00;64707.72;5050958;28;20203;-54
2023/06/04 00:19:30;;;;;;;5.20;3.05;;;;;;;16.48;100.00;64698.31;5051193;28;20691;-55
2023/06/04 00:21:55;;;;;;;3.42;2.97;;;;;;;16.46;100.00;64698.66;5050668;28;20228;-55
2023/06/04 00:24:21;;;;;;;3.25;2.90;;;;;;;16.45;100.00;64694.47;5050797;28;20315;-55
2023/06/04 00:26:46;;;;;;;4.70;3.13;;;;;;;16.52;100.00;64705.28;5050626;28;20247;-55
2023/06/04 00:29:12;;;;;;;3.45;2.95;;;;;;;16.73;100.00;64725.88;5050672;28;20209;-56
2023/06/04 00:31:37;;;;;;;3.72;3.30;;;;;;;16.69;100.00;64720.94;5050748;28;20217;-57
2023/06/04 00:34:06;;;;;;;3.08;2.75;;;;;;;16.70;100.00;64725.13;5050913;28;20268;-56
2023/06/04 00:36:31;;;;;;;4.97;3.33;;;;;;;16.63;100.00;64717.41;5050661;28;20201;-56
2023/06/04 00:38:56;;;;;;;5.03;3.55;;;;;;;16.58;100.00;64709.34;5050915;28;20197;-56
2023/06/04 00:41:22;;;;;;;6.40;3.60;;;;;;;16.58;100.00;64709.34;5050552;28;20192;-55
2023/06/04 00:43:55;;;;;;;4.25;3.50;;;;;;;16.54;100.00;64706.97;5050197;28;20294;-56
2023/06/04 00:46:21;;;;;;;6.60;3.85;;;;;;;16.46;100.00;64698.66;5050594;28;20212;-55
2023/06/04 00:48:46;;;;;;;4.22;3.80;;;;;;;16.47;100.00;64697.25;5050539;28;20213;-55
2023/06/04 00:51:12;;;;;;;4.10;3.35;;;;;;;16.56;100.00;64706.63;5050644;28;20736;-55
2023/06/04 00:53:39;;;;;;;5.97;4.22;;;;;;;16.62;100.00;64711.22;5049438;28;20267;-59
2023/06/04 00:56:05;;;;;;;5.45;3.95;;;;;;;16.57;100.00;64707.72;5050491;28;20201;-56
2023/06/04 00:58:31;;;;;;;9.05;5.10;;;;;;;16.43;100.00;64694.81;5050518;28;20213;-57
2023/06/04 01:01:03;;;;;;;6.90;5.50;;;;;;;16.50;100.00;64700.56;5050365;28;20702;-54
2023/06/04 01:03:32;;;;;;;8.82;6.15;;;;;;;16.56;100.00;64707.16;5050442;28;20213;-55
2023/06/04 01:06:08;;;;;;;7.63;5.93;;;;;;;16.60;100.00;64714.09;5050422;28;20288;-57
2023/06/04 01:08:35;;;;;;;7.60;6.78;;;;;;;16.64;100.00;64717.97;5050610;28;20709;-58
2023/06/04 01:11:01;;;;;;;8.00;6.72;;;;;;;16.63;100.00;64711.78;5050471;28;20217;-57
2023/06/04 01:13:33;;;;;;;7.75;6.70;;;;;;;16.60;100.00;64711.56;5050077;28;20231;-57
2023/06/04 01:15:59;;;;;;;8.70;6.50;;;;;;;16.45;100.00;64695.03;5050167;28;20206;-57
2023/06/04 01:18:28;;;;;;;10.52;7.40;;;;;;;16.54;100.00;64704.94;5050319;28;20213;-58
2023/06/04 01:21:07;;;;;;;7.95;7.15;;;;;;;16.77;100.00;64732.84;5050123;28;20212;-58
2023/06/04 01:23:35;;;;;;;7.88;7.07;;;;;;;16.62;100.00;64713.22;5050076;28;20597;-58
2023/06/04 01:26:03;;;;;;;11.80;7.60;;;;;;;16.84;100.00;64734.91;5050144;28;20201;-55
2023/06/04 01:28:33;;;;;;;12.25;7.20;;;;;;;16.62;100.00;64715.78;5049924;28;20209;-55
2023/06/04 01:31:01;;;;;;;7.28;6.40;;;;;;;16.64;100.00;64715.97;5049889;28;20236;-55
2023/06/04 01:33:27;;;;;;;11.38;5.78;;;;;;;16.67;100.00;64721.81;5050100;28;20248;-55
2023/06/04 01:35:53;;;;;;;7.82;4.80;;;;;;;16.60;100.00;64716.66;5049920;28;20193;-56
2023/06/04 01:38:19;;;;;;;5.80;4.32;;;;;;;16.46;100.00;64693.59;5049812;28;20225;-56
2023/06/04 01:40:46;;;;;;;5.72;3.75;;;;;;;16.48;100.00;64700.88;5049911;28;20196;-54
2023/06/04 01:43:12;;;;;;;3.75;3.40;;;;;;;16.48;100.00;64697.78;5049639;28;20248;-57
2023/06/04 01:45:37;;;;;;;3.42;2.78;;;;;;;16.40;100.00;64692.06;5049776;28;20300;-56
2023/06/04 01:48:04;;;;;;;2.55;2.35;;;;;;;16.46;100.00;64698.13;5049942;28;20635;-55
2023/06/04 01:50:30;;;;;;;5.00;2.88;;;;;;;16.38;100.00;64684.25;5049734;28;20231;-56
2023/06/04 01:52:56;;;;;;;3.90;2.78;;;;;;;16.26;100.00;64676.13;5049613;28;20205;-61
2023/06/04 01:55:21;;;;;;;3.42;2.63;;;;;;;16.34;100.00;64679.84;5049623;28;20255;-60
2023/06/04 01:57:53;;;;;;;3.10;2.65;;;;;;;16.42;100.00;64691.19;5049629;28;20277;-56
2023/06/04 02:00:19;;;;;;;4.18;3.22;;;;;;;16.44;100.00;64695.94;5049466;28;20260;-56
2023/06/04 02:02:47;;;;;;;3.42;2.58;;;;;;;16.40;100.00;64689.53;5049741;28;20170;-56
2023/06/04 02:05:13;;;;;;;3.28;2.97;;;;;;;16.30;100.00;64681.06;5050688;28;20285;-56
2023/06/04 02:07:44;;;;;;;4.35;2.90;;;;;;;16.24;100.00;64673.91;5053007;28;20201;-56
2023/06/04 02:10:15;;;;;;;5.38;3.63;;;;;;;16.30;100.00;64678.50;5052519;28;20213;-55
2023/06/04 02:12:53;;;;;;;4.95;4.40;;;;;;;16.42;100.00;64691.72;5052883;28;20274;-58
2023/06/04 02:15:18;;;;;;;7.50;5.72;;;;;;;16.28;100.00;64678.31;5034813;28;20634;-57
2023/06/04 02:17:45;;;;;;;7.72;6.93;;;;;;;16.23;100.00;64672.81;5052805;28;20194;-56
2023/06/04 02:20:11;;;;;;;9.27;6.88;;;;;;;16.30;100.00;64681.06;5052638;28;20310;-55
2023/06/04 02:22:37;;;;;;;7.10;6.43;;;;;;;16.27;100.00;64672.13;5052582;28;20201;-56
2023/06/04 02:25:03;;;;;;;9.85;7.57;;;;;;;16.36;100.00;64687.66;5052513;28;20217;-56
2023/06/04 02:27:28;;;;;;;6.70;5.78;;;;;;;16.22;100.00;64671.72;5052645;28;20221;-56
2023/06/04 02:29:54;;;;;;;6.25;5.18;;;;;;;16.31;100.00;64679.63;5052328;28;20275;-56
2023/06/04 02:32:19;;;;;;;6.72;5.63;;;;;;;16.36;100.00;64682.03;5052590;28;20593;-56
2023/06/04 02:34:45;;;;;;;5.03;4.53;;;;;;;16.29;100.00;64676.88;5052768;28;20597;-56
2023/06/04 02:37:10;;;;;;;6.10;4.63;;;;;;;16.27;100.00;64677.22;5052450;28;20201;-55
2023/06/04 02:39:35;;;;;;;4.25;3.85;;;;;;;16.27;100.00;64675.22;5052521;28;20237;-57
2023/06/04 02:42:01;;;;;;;4.95;3.40;;;;;;;16.10;100.00;64655.97;5052440;28;20224;-58
2023/06/04 02:44:29;;;;;;;3.83;3.40;;;;;;;16.09;100.00;64652.31;5052247;28;20209;-57
2023/06/04 02:46:54;;;;;;;3.65;3.30;;;;;;;15.92;100.00;64639.78;5052396;28;20255;-58
2023/06/04 02:49:20;;;;;;;3.63;3.30;;;;;;;16.06;100.00;64649.56;5052578;28;20249;-57
2023/06/04 02:51:45;;;;;;;4.72;3.38;;;;;;;16.10;100.00;64656.50;5052225;28;20217;-57
2023/06/04 02:54:11;;;;;;;4.43;2.92;;;;;;;16.05;100.00;64651.00;5052550;28;20683;-56
2023/06/04 02:56:37;;;;;;;4.28;3.20;;;;;;;16.06;100.00;64654.63;5051945;28;20204;-56
2023/06/04 02:59:03;;;;;;;4.38;2.78;;;;;;;16.14;100.00;64660.91;5052496;28;20794;-56
2023/06/04 03:01:28;;;;;;;3.83;2.88;;;;;;;16.07;100.00;64650.66;5052175;28;20248;-56
2023/06/04 03:03:54;;;;;;;3.03;2.72;;;;;;;16.04;100.00;64652.44;5052221;28;20683;-56
2023/06/04 03:06:21;;;;;;;3.47;3.08;;;;;;;16.11;100.00;64657.63;5052174;28;20203;-55
2023/06/04 03:08:51;;;;;;;4.32;2.60;;;;;;;16.06;100.00;64654.63;5051999;28;20687;-56
2023/06/04 03:11:20;;;;;;;3.80;2.70;;;;;;;16.09;100.00;64654.84;5051885;28;20221;-57
2023/06/04 03:13:46;;;;;;;4.82;2.90;;;;;;;16.12;100.00;64661.25;5052161;28;20222;-57
2023/06/04 03:16:12;;;;;;;4.88;3.03;;;;;;;16.20;100.00;64667.50;5051488;28;20267;-58
2023/06/04 03:18:38;;;;;;;3.03;2.42;;;;;;;16.05;100.00;64650.44;5051772;28;20205;-58
2023/06/04 03:21:07;;;;;;;2.65;2.45;;;;;;;16.12;100.00;64658.16;5051744;28;20190;-57
2023/06/04 03:23:33;;;;;;;3.22;2.50;;;;;;;16.17;100.00;64666.75;5051527;28;20225;-58
2023/06/04 03:26:02;;;;;;;4.60;2.88;;;;;;;16.35;100.00;64683.47;5051839;28;20178;-58
2023/06/04 03:28:28;;;;;;;2.67;2.47;;;;;;;16.47;100.00;64697.25;5051548;28;20213;-58
2023/06/04 03:30:54;;;;;;;3.63;2.63;;;;;;;16.16;100.00;64665.13;5051890;28;20221;-56
2023/06/04 03:33:19;;;;;;;3.33;2.72;;;;;;;16.37;100.00;64690.75;5051848;28;20225;-55
2023/06/04 03:35:45;;;;;;;2.90;2.60;;;;;;;16.27;100.00;64677.75;5051541;28;20709;-56
2023/06/04 03:38:11;;;;;;;5.38;2.53;;;;;;;16.21;100.00;64671.16;5051553;28;20221;-56
2023/06/04 03:40:37;;;;;;;3.67;2.60;;;;;;;16.13;100.00;64659.25;5051431;28;20190;-56
2023/06/04 03:43:04;;;;;;;2.97;2.50;;;;;;;16.37;100.00;64686.22;5033472;28;20232;-59
2023/06/04 03:45:30;;;;;;;3.95;2.80;;;;;;;16.29;100.00;64677.41;5051277;28;20276;-55
2023/06/04 03:47:55;;;;;;;5.13;2.97;;;;;;;16.37;100.00;64686.22;5051381;28;20292;-56
2023/06/04 03:50:21;;;;;;;22.63;13.93;;;;;;;16.20;100.00;64666.97;5051173;28;20213;-56
2023/06/04 03:52:48;;;;;;;6.00;4.90;;;;;;;16.18;100.00;64664.78;5050959;28;20296;-56
2023/06/04 03:55:13;;;;;;;3.35;2.30;;;;;;;16.26;100.00;64674.13;5051362;28;20173;-55
2023/06/04 03:57:39;;;;;;;5.90;2.90;;;;;;;16.35;100.00;64684.03;5051057;28;20236;-55
2023/06/04 04:00:11;;;;;;;6.80;3.70;;;;;;;16.31;100.00;64679.06;5050997;28;20205;-56
2023/06/04 04:02:37;;;;;;;4.30;3.10;;;;;;;16.29;100.00;64679.97;5051250;28;20197;-55
2023/06/04 04:05:03;;;;;;;6.95;3.38;;;;;;;16.53;100.00;64706.41;5051134;28;20221;-56
2023/06/04 04:07:28;;;;;;;5.70;3.00;;;;;;;16.35;100.00;64686.56;5051090;28;20212;-57
2023/06/04 04:09:54;;;;;;;6.47;3.15;;;;;;;16.51;100.00;64704.22;5050780;28;20284;-57
2023/06/04 04:12:19;;;;;;;21.52;14.05;;;;;;;16.46;100.00;64695.59;5050799;28;20288;-55
2023/06/04 04:14:46;;;;;;;7.43;3.15;;;;;;;16.56;100.00;64704.06;5050938;28;20217;-56
2023/06/04 04:17:12;;;;;;;3.30;3.00;;;;;;;16.59;100.00;64707.94;5050889;28;20223;-56
2023/06/04 04:19:38;;;;;;;3.03;2.80;;;;;;;16.76;100.00;64729.19;5050753;28;20213;-55
2023/06/04 04:22:22;;;;;;;3.35;2.95;;;;;;;16.70;100.00;64722.56;5050857;28;20271;-56
2023/06/04 04:24:47;;;;;;;4.07;2.65;;;;;;;16.65;100.00;64719.63;5051183;28;20296;-55
2023/06/04 04:27:12;;;;;;;5.45;3.15;;;;;;;16.78;100.00;64733.94;5051013;28;20287;-55
2023/06/04 04:29:38;;;;;;;3.00;2.70;;;;;;;16.85;100.00;64738.53;5050915;28;20296;-57
2023/06/04 04:32:10;;;;;;;5.63;3.17;;;;;;;16.92;100.00;64745.72;5050667;28;20248;-55
2023/06/04 04:34:38;;;;;;;5.00;3.10;;;;;;;16.85;100.00;64738.00;5050677;28;20209;-55
2023/06/04 04:37:08;;;;;;;6.03;2.90;;;;;;;16.96;100.00;64750.66;5050747;28;20735;-56
2023/06/04 04:39:34;;;;;;;5.13;3.35;;;;;;;16.87;100.00;64740.22;5050483;28;20266;-56
2023/06/04 04:42:00;;;;;;;6.05;3.42;;;;;;;16.83;100.00;64738.88;5050688;28;20288;-55
2023/06/04 04:44:25;;;;;;;6.65;3.03;;;;;;;16.70;100.00;64722.56;5051014;28;20566;-57
2023/06/04 04:46:51;;;;;;;4.50;3.47;;;;;;;16.93;100.00;64744.28;5050386;28;20239;-56
2023/06/04 04:49:16;;;;;;;3.40;3.10;;;;;;;17.03;100.00;64758.38;5050859;28;20275;-56
2023/06/04 04:51:42;;;;;;;3.92;3.58;;;;;;;16.98;100.00;64752.88;5050537;28;20225;-58
2023/06/04 04:54:07;;;;;;;3.50;2.97;;;;;;;17.13;100.00;64771.41;5050736;28;20209;-56
2023/06/04 04:56:34;;;;;;;4.28;3.53;;;;;;;17.32;100.00;64789.78;5050275;28;20721;-57
2023/06/04 04:59:18;;;;;;;3.88;3.47;;;;;;;17.35;100.00;64790.53;5050383;28;20205;-57
2023/06/04 05:01:44;;;;;;;5.13;3.67;;;;;;;17.32;100.00;64789.78;5050299;28;20694;-57
2023/06/04 05:04:09;;;;;;;8.88;4.22;;;;;;;17.24;100.00;64778.97;5050134;28;20249;-56
2023/06/04 05:06:37;;;;;;;6.28;4.60;;;;;;;17.22;100.00;64778.75;5050266;28;20193;-56
2023/06/04 05:09:02;;;;;;;4.28;3.70;;;;;;;17.33;100.00;64793.97;5050478;28;20248;-55
2023/06/04 05:11:27;;;;;;;6.00;3.65;;;;;;;17.52;100.00;64812.38;5050051;28;20251;-56
2023/06/04 05:13:53;;;;;;;8.23;3.67;;;;;;;17.43;100.00;64801.91;5049894;28;20255;-54
2023/06/04 05:16:20;;;;;;;6.78;3.83;;;;;;;17.45;100.00;64804.09;5050281;28;20561;-56
2023/06/04 05:18:46;;;;;;;4.22;3.83;;;;;;;17.30;100.00;64785.56;5050007;28;20220;-56
2023/06/04 05:21:12;;;;;;;5.05;3.80;;;;;;;17.32;100.00;64787.22;5050143;28;20201;-58
2023/06/04 05:23:38;;;;;;;5.38;3.95;;;;;;;17.17;100.00;64773.25;5049808;28;20761;-57
2023/06/04 05:26:04;;;;;;;7.80;4.03;;;;;;;17.30;100.00;64790.13;5050037;28;20197;-58
2023/06/04 05:28:32;;;;;;;5.72;4.35;;;;;;;17.42;100.00;64800.78;5050245;28;20546;-57
2023/06/04 05:31:01;;;;;;;4.90;4.15;;;;;;;17.54;100.00;64814.03;5049799;28;20213;-58
2023/06/04 05:33:27;;;;;;;8.65;4.07;;;;;;;17.46;100.00;64802.66;5050025;28;20328;-57
2023/06/04 05:35:53;;;;;;;5.50;3.53;;;;;;;17.56;100.00;64816.78;5049929;28;20205;-59
2023/06/04 05:38:20;;;;;;;4.47;4.00;;;;;;;17.57;100.00;64817.34;5050235;28;20224;-58
2023/06/04 05:40:45;;;;;;;4.93;3.60;;;;;;;17.54;100.00;64812.03;5051762;28;20699;-59
2023/06/04 05:43:11;;;;;;;4.85;3.83;;;;;;;17.49;100.00;64808.53;5053546;28;20247;-61
2023/06/04 05:45:37;;;;;;;4.70;4.30;;;;;;;17.56;100.00;64813.69;5053318;28;20197;-59
2023/06/04 05:48:03;;;;;;;8.48;4.53;;;;;;;17.45;100.00;64804.09;5053317;28;20280;-58
2023/06/04 05:50:30;;;;;;;6.38;4.32;;;;;;;17.51;100.00;64811.28;5053106;28;20244;-58
2023/06/04 05:52:56;;;;;;;5.88;4.55;;;;;;;17.60;100.00;64818.09;5053437;28;20343;-60
2023/06/04 05:55:22;;;;;;;7.93;4.68;;;;;;;17.63;100.00;64823.41;5053062;28;20671;-58
2023/06/04 05:57:48;;;;;;;6.22;4.93;;;;;;;17.70;100.00;64834.22;5053275;28;20202;-60
2023/06/04 06:00:14;;;;;;;6.25;4.72;;;;;;;17.75;100.00;64839.75;5035198;28;20571;-58
2023/06/04 06:02:40;;;;;;;5.85;4.68;;;;;;;17.71;100.00;64834.78;5052993;28;20228;-58
2023/06/04 06:05:09;;;;;;;6.93;5.07;;;;;;;17.79;100.00;64843.59;5052799;28;20718;-59
2023/06/04 06:07:35;;;;;;;6.38;4.43;;;;;;;17.81;100.00;64843.25;5053013;28;20272;-59
2023/06/04 06:10:01;;;;;;;6.53;3.90;;;;;;;17.79;100.00;64841.59;5052667;28;20245;-62
2023/06/04 06:12:27;;;;;;;5.85;4.30;;;;;;;17.79;100.00;64841.03;5052781;28;20741;-59
2023/06/04 06:14:52;;;;;;;5.63;4.95;;;;;;;18.09;100.00;64874.69;5052770;28;20235;-59
2023/06/04 06:17:17;;;;;;;9.30;5.47;;;;;;;18.21;100.00;64884.81;5052894;28;20653;-59
2023/06/04 06:19:43;;;;;;;5.57;4.15;;;;;;;18.21;100.00;64887.34;5053393;28;20215;-59
2023/06/04 06:22:08;;;;;;;6.90;4.45;;;;;;;18.22;100.00;64885.91;5052930;28;20582;-60
2023/06/04 06:24:34;;;;;;;5.03;4.50;;;;;;;18.33;100.00;64898.03;5052966;28;20217;-58
2023/06/04 06:26:59;;;;;;;8.32;4.80;;;;;;;18.32;100.00;64897.47;5052733;28;20348;-59
2023/06/04 06:29:25;;;;;;;8.48;4.38;;;;;;;18.28;100.00;64893.06;5052739;28;20300;-57
2023/06/04 06:31:51;;;;;;;5.93;3.80;;;;;;;18.15;100.00;64881.28;5052548;28;20225;-56
2023/06/04 06:34:16;;;;;;;8.02;4.07;;;;;;;18.27;100.00;64893.97;5052428;28;20218;-57
2023/06/04 06:36:42;;;;;;;5.22;3.72;;;;;;;18.17;100.00;64886.03;5052517;28;20683;-60
2023/06/04 06:39:08;;;;;;;6.57;4.13;;;;;;;18.41;100.00;64909.97;5052235;28;20225;-58
2023/06/04 06:41:34;;;;;;;5.32;4.22;;;;;;;18.50;100.00;64918.81;5052257;28;20228;-58
2023/06/04 06:44:00;;;;;;;6.60;4.75;;;;;;;18.47;100.00;64918.59;5052502;28;20582;-58
2023/06/04 06:46:25;;;;;;;5.88;4.47;;;;;;;18.43;100.00;64911.63;5052269;28;20201;-59
2023/06/04 06:48:50;;;;;;;7.00;4.45;;;;;;;18.46;100.00;64912.41;5034439;28;20264;-59
2023/06/04 06:51:16;;;;;;;9.45;4.70;;;;;;;18.36;100.00;64907.00;5051381;28;20214;-59
2023/06/04 06:53:42;;;;;;;4.85;4.20;;;;;;;18.46;100.00;64914.41;5051907;28;20254;-62
2023/06/04 06:56:08;;;;;;;4.25;3.85;;;;;;;18.53;100.00;64920.13;5052120;28;20204;-59
2023/06/04 06:58:33;;;;;;;8.07;4.40;;;;;;;18.58;100.00;64928.19;5052159;28;20574;-59
2023/06/04 07:00:59;;;;;;;6.88;4.07;;;;;;;18.62;100.00;64926.94;5052203;28;20192;-59
2023/06/04 07:03:25;;;;;;;8.82;4.10;;;;;;;18.44;100.00;64910.72;5052099;28;20213;-59
2023/06/04 07:05:50;;;;;;;7.90;5.15;;;;;;;18.61;100.00;64933.47;5052229;28;20205;-59
2023/06/04 07:08:16;;;;;;;6.88;4.72;;;;;;;18.51;100.00;64917.34;5052107;28;20672;-59
2023/06/04 07:10:41;;;;;;;6.95;5.70;;;;;;;18.46;100.00;64917.50;5051702;28;20403;-59
2023/06/04 07:13:06;;;;;;;14.65;10.82;;;;;;;18.55;100.00;64924.88;5051875;28;20220;-60
2023/06/04 07:15:32;;;;;;;4.93;4.03;;;;;;;18.72;100.00;64941.09;5051922;28;20256;-60
2023/06/04 07:17:57;;;;;;;5.85;4.47;;;;;;;18.70;100.00;64938.31;5051785;28;20208;-61
2023/06/04 07:20:23;;;;;;;7.03;5.95;;;;;;;18.80;100.00;64949.34;5051945;28;20622;-60
2023/06/04 07:22:48;;;;;;;8.50;6.28;;;;;;;18.92;100.00;64965.16;5051984;28;20220;-59
2023/06/04 07:25:14;;;;;;;6.85;4.50;;;;;;;18.92;100.00;64965.16;5051881;28;20205;-58
2023/06/04 07:27:39;;;;;;;6.85;5.00;;;;;;;19.14;100.00;64986.88;5051791;28;20280;-59
2023/06/04 07:30:07;;;;;;;7.07;5.18;;;;;;;19.26;100.00;64997.56;5051493;28;20691;-59
2023/06/04 07:32:32;;;;;;;6.57;4.55;;;;;;;19.26;100.00;65002.66;5051647;28;20205;-60
2023/06/04 07:34:58;;;;;;;4.68;4.15;;;;;;;19.31;100.00;65005.09;5051540;28;20234;-59
2023/06/04 07:37:23;;;;;;;6.25;4.30;;;;;;;19.33;100.00;65007.88;5051545;28;20634;-60
2023/06/04 07:39:49;;;;;;;8.52;4.30;;;;;;;19.62;100.00;65036.75;5051393;28;20210;-57
2023/06/04 07:42:14;;;;;;;8.15;4.50;;;;;;;19.55;100.00;65032.16;5051508;28;20679;-62
2023/06/04 07:44:40;;;;;;;9.98;4.82;;;;;;;19.51;100.00;65027.19;5051739;28;20210;-59
2023/06/04 07:47:05;;;;;;;5.13;4.40;;;;;;;19.72;100.00;65050.91;5051383;28;20244;-58
2023/06/04 07:49:31;;;;;;;6.10;4.30;;;;;;;19.62;100.00;65039.31;5051690;28;20240;-59
2023/06/04 07:51:57;;;;;;;6.50;4.57;;;;;;;19.91;100.00;65071.34;5051173;28;20556;-60
2023/06/04 07:54:23;;;;;;;6.55;4.85;;;;;;;20.19;100.00;65101.72;5051518;28;20263;-57
2023/06/04 07:56:48;;;;;;;8.43;4.88;;;;;;;20.17;100.00;65099.50;5033267;28;20213;-58
2023/06/04 07:59:14;;;;;;;10.50;4.90;;;;;;;20.13;100.00;65098.22;5051089;28;20220;-59
2023/06/04 08:01:40;;;;;;;7.53;4.18;;;;;;;20.15;100.00;65097.88;5051082;28;20287;-58
2023/06/04 08:04:05;;;;;;;7.13;4.68;;;;;;;20.12;100.00;65094.00;5050615;28;20217;-58
2023/06/04 08:06:31;;;;;;;6.80;4.50;;;;;;;20.11;100.00;65093.44;5051116;28;20652;-58
2023/06/04 08:08:56;;;;;;;6.30;4.55;;;;;;;20.08;99.71;65093.25;5051277;28;20319;-60
2023/06/04 08:11:22;;;;;;;6.75;4.88;;;;;;;20.09;100.00;65093.78;5050834;28;20245;-59
2023/06/04 08:13:48;;;;;;;5.15;4.65;;;;;;;20.02;100.00;65083.50;5051291;28;20244;-59
2023/06/04 08:16:13;;;;;;;7.18;4.65;;;;;;;20.27;100.00;65116.25;5051205;28;20205;-59
2023/06/04 08:18:39;;;;;;;10.45;4.68;;;;;;;20.10;100.00;65095.44;5032981;28;20699;-62
2023/06/04 08:21:06;;;;;;;6.68;4.93;;;;;;;20.19;100.00;65101.72;5050820;28;20300;-59
2023/06/04 08:23:32;;;;;;;8.07;5.10;;;;;;;20.30;100.00;65116.47;5050877;28;20225;-60
2023/06/04 08:25:58;;;;;;;6.68;4.60;;;;;;;20.04;100.00;65086.25;5050798;28;20239;-58
2023/06/04 08:28:24;;;;;;;7.53;4.78;;;;;;;20.16;100.00;65098.97;5050860;28;20271;-56
2023/06/04 08:30:49;;;;;;;7.97;5.47;;;;;;;20.39;100.00;65126.41;5050621;28;20321;-58
2023/06/04 08:33:15;;;;;;;6.18;4.88;;;;;;;20.35;100.00;65117.41;5050942;28;20288;-58
2023/06/04 08:35:40;;;;;;;13.93;5.72;;;;;;;20.32;100.00;65116.13;5050572;28;20208;-60
2023/06/04 08:38:06;;;;;;;6.72;5.15;;;;;;;20.35;100.00;65119.41;5050490;28;20301;-59
2023/06/04 08:40:34;;;;;;;8.35;5.15;;;;;;;20.38;100.00;65123.28;5050598;28;20259;-59
2023/06/04 08:43:00;;;;;;;5.32;4.60;;;;;;;20.36;100.00;65121.06;5050783;28;20659;-58
2023/06/04 08:45:26;;;;;;;9.73;5.72;;;;;;;20.27;98.03;65110.59;5050391;28;20255;-58
2023/06/04 08:47:53;;;;;;;8.98;5.80;;;;;;;19.96;97.22;65076.88;5050296;28;20200;-58
2023/06/04 08:50:21;;;;;;;8.43;5.90;;;;;;;19.77;99.09;65059.00;5050770;28;20213;-56
2023/06/04 08:52:54;;;;;;;10.77;5.18;;;;;;;19.87;96.98;65067.50;5050386;28;20697;-57
2023/06/04 08:55:21;;;;;;;6.80;5.80;;;;;;;19.79;100.00;65060.66;5050378;28;20197;-57
2023/06/04 08:57:49;;;;;;;7.68;6.38;;;;;;;19.68;98.21;65049.06;5032457;28;20263;-57
2023/06/04 09:00:15;;;;;;;12.27;5.80;;;;;;;19.74;95.95;65053.13;5050269;28;20205;-59
2023/06/04 09:02:40;;;;;;;6.15;5.53;;;;;;;19.75;95.39;65054.25;5050282;28;20228;-60
2023/06/04 09:05:10;;;;;;;12.00;6.10;;;;;;;19.99;94.78;65083.31;5050142;28;20244;-60
2023/06/04 09:07:38;;;;;;;7.57;5.60;;;;;;;20.17;95.03;65099.50;5050120;28;20208;-58
2023/06/04 09:10:06;;;;;;;9.93;5.75;;;;;;;20.36;89.50;65120.53;5050413;28;20683;-60
2023/06/04 09:12:35;;;;;;;11.00;6.15;;;;;;;20.25;87.51;65108.38;5050019;28;20268;-62
2023/06/04 09:15:00;;;;;;;7.47;5.35;;;;;;;20.36;88.93;65126.19;5050718;28;20687;-62
2023/06/04 09:17:28;;;;;;;7.05;5.32;;;;;;;20.34;87.15;65118.34;5053645;28;20289;-60
2023/06/04 09:19:54;;;;;;;7.72;6.22;;;;;;;20.13;87.50;65093.09;5053459;28;20216;-59
2023/06/04 09:22:19;;;;;;;9.68;6.32;;;;;;;20.24;89.05;65109.84;5053683;28;20209;-59
2023/06/04 09:24:47;;;;;;;8.88;6.80;;;;;;;20.44;87.39;65129.38;5053578;28;20621;-60
2023/06/04 09:27:22;;;;;;;8.32;6.38;;;;;;;20.40;85.30;65122.41;5053509;28;20287;-59
2023/06/04 09:29:58;;;;;;;9.77;6.55;;;;;;;20.51;85.57;65139.66;5053619;28;20212;-57
2023/06/04 09:32:25;;;;;;;10.70;6.72;;;;;;;20.69;83.50;65157.00;5053451;28;20204;-58
2023/06/04 09:34:52;;;;;;;10.82;7.53;;;;;;;20.70;85.49;65160.69;5053116;28;20266;-59
2023/06/04 09:37:18;;;;;;;10.93;8.15;;;;;;;20.68;85.48;65155.91;5053357;28;20177;-57
2023/06/04 09:39:53;;;;;;;9.32;7.10;;;;;;;20.58;84.62;65144.84;5053641;28;20224;-60
2023/06/04 09:42:19;;;;;;;10.38;6.95;;;;;;;20.52;84.21;65138.22;5053352;28;20231;-58
2023/06/04 09:44:45;;;;;;;10.13;7.50;;;;;;;20.64;87.29;65148.91;5053081;28;20237;-58
2023/06/04 09:47:11;;;;;;;9.23;7.22;;;;;;;20.93;85.25;65184.09;5053161;28;20201;-58
2023/06/04 09:49:47;;;;;;;10.00;7.18;;;;;;;21.03;83.08;65191.50;5053196;28;20769;-57
2023/06/04 09:52:13;;;;;;;10.80;8.32;;;;;;;21.17;87.96;65207.50;5052880;28;20271;-60
2023/06/04 09:54:43;;;;;;;11.63;6.90;;;;;;;21.44;82.63;65239.94;5053045;28;20213;-58
2023/06/04 09:57:18;;;;;;;7.68;6.20;;;;;;;21.22;80.34;65213.06;5053062;28;20194;-56
2023/06/04 09:59:50;;;;;;;7.07;5.45;;;;;;;21.15;81.93;65207.34;5053282;28;20663;-56
2023/06/04 10:02:20;;;;;;;12.15;5.95;;;;;;;21.33;83.19;65225.22;5052965;28;20216;-57
2023/06/04 10:04:52;;;;;;;8.18;6.18;;;;;;;21.41;85.58;65236.09;5053234;28;20217;-56
2023/06/04 10:07:18;;;;;;;7.78;5.28;;;;;;;21.94;83.80;65294.72;5052684;28;20197;-56
2023/06/04 10:09:47;;;;;;;7.07;5.55;;;;;;;22.24;81.55;65324.81;5052851;28;20226;-56
2023/06/04 10:12:18;;;;;;;7.40;5.78;;;;;;;22.44;78.97;65349.53;5052461;28;20245;-57
2023/06/04 10:14:58;;;;;;;8.35;6.28;;;;;;;22.13;81.74;65315.75;5052569;28;20216;-57
2023/06/04 10:17:27;;;;;;;8.68;5.30;;;;;;;22.43;78.04;65351.53;5052678;28;20206;-57
2023/06/04 10:20:00;;;;;;;9.23;6.20;;;;;;;22.86;79.97;65395.50;5052635;28;20804;-59
2023/06/04 10:22:25;;;;;;;9.15;5.70;;;;;;;23.09;79.30;65418.38;5052740;28;20217;-57
2023/06/04 10:24:51;;;;;;;7.90;5.90;;;;;;;23.50;78.94;65466.41;5052456;28;20302;-57
2023/06/04 10:27:17;;;;;;;8.57;6.38;;;;;;;23.57;71.75;65471.03;5052580;28;20193;-59
2023/06/04 10:29:44;;;;;;;8.30;6.15;;;;;;;23.68;73.17;65485.78;5052742;28;20213;-58
2023/06/04 10:32:10;;;;;;;9.02;5.72;;;;;;;23.58;70.42;65474.72;5052556;28;20236;-58
2023/06/04 10:34:36;;;;;;;7.53;6.10;;;;;;;23.31;72.62;65445.91;5052604;28;20339;-56
2023/06/04 10:37:02;;;;;;;7.53;5.57;;;;;;;23.68;70.79;65486.34;5052569;28;20267;-56
2023/06/04 10:39:32;;;;;;;7.60;5.03;;;;;;;24.32;70.54;65554.19;5052383;28;20339;-57
2023/06/04 10:41:59;;;;;;;11.70;5.45;;;;;;;24.16;70.92;65537.00;5052882;28;20185;-56
2023/06/04 10:44:25;;;;;;;8.27;5.60;;;;;;;23.84;68.63;65503.53;5052639;28;20235;-58
2023/06/04 10:46:50;;;;;;;6.30;5.60;;;;;;;23.81;71.97;65497.63;5052367;28;20655;-59
2023/06/04 10:49:26;;;;;;;7.85;5.82;;;;;;;23.90;71.02;65512.75;5052380;28;20688;-58
2023/06/04 10:51:52;;;;;;;9.38;5.90;;;;;;;24.03;72.12;65524.63;5052111;28;20217;-57
2023/06/04 10:54:25;;;;;;;7.78;5.80;;;;;;;23.96;70.07;65514.25;5052233;28;20713;-59
2023/06/04 10:56:51;;;;;;;6.35;5.75;;;;;;;24.06;72.14;65527.94;5034206;28;20193;-58
2023/06/04 10:59:18;;;;;;;9.48;6.35;;;;;;;23.77;67.28;65496.34;5052202;28;20233;-58
2023/06/04 11:01:44;;;;;;;7.72;6.15;;;;;;;23.98;68.66;65519.59;5052091;28;20193;-57
2023/06/04 11:04:22;;;;;;;7.30;5.78;;;;;;;24.53;71.41;65577.47;5052017;28;20206;-59
2023/06/04 11:07:01;;;;;;;6.32;5.60;;;;;;;24.58;66.33;65583.03;5051902;28;20185;-58
2023/06/04 11:09:27;;;;;;;6.57;5.45;;;;;;;24.21;68.61;65544.56;5052214;28;20217;-58
2023/06/04 11:11:59;;;;;;;8.75;5.57;;;;;;;23.75;71.29;65494.13;5051613;28;20215;-57
2023/06/04 11:14:25;;;;;;;6.47;5.82;;;;;;;23.69;71.56;65486.91;5051940;28;20714;-58
2023/06/04 11:16:50;;;;;;;6.93;6.22;;;;;;;23.97;72.48;65515.38;5051771;28;20186;-57
2023/06/04 11:19:16;;;;;;;6.78;5.90;;;;;;;23.74;72.01;65493.00;5051656;28;20292;-58
2023/06/04 11:21:41;;;;;;;7.68;6.18;;;;;;;23.22;73.12;65435.38;5051781;28;20240;-59
2023/06/04 11:24:07;;;;;;;6.43;5.82;;;;;;;23.40;73.00;65457.91;5051845;28;20242;-60